createdAt,value
2019-01-30T00:00:57.331Z,1.57
2019-01-30T00:01:57.317Z,1.57
2019-01-30T00:02:57.306Z,1.49
2019-01-30T00:03:57.296Z,1.41
2019-01-30T00:04:57.288Z,1.46
2019-01-30T00:05:57.274Z,1.31
2019-01-30T00:06:57.262Z,1.39
2019-01-30T00:07:57.256Z,1.38
2019-01-30T00:08:57.238Z,1.36
2019-01-30T00:09:57.227Z,1.41
2019-01-30T00:10:57.215Z,1.42
2019-01-30T00:11:57.203Z,1.38
2019-01-30T00:12:57.193Z,1.31
2019-01-30T00:13:57.189Z,1.36
2019-01-30T00:14:57.171Z,1.41
2019-01-30T00:15:57.158Z,1.45
2019-01-30T00:16:57.148Z,1.36
2019-01-30T00:17:57.138Z,1.41
2019-01-30T00:18:57.127Z,1.41
2019-01-30T00:19:57.114Z,1.35
2019-01-30T00:20:57.104Z,1.34
2019-01-30T00:21:57.096Z,1.35
2019-01-30T00:22:57.079Z,1.30
2019-01-30T00:23:57.076Z,1.26
2019-01-30T00:24:57.057Z,1.34
2019-01-30T00:25:57.051Z,1.23
2019-01-30T00:26:57.044Z,1.31
2019-01-30T00:27:57.030Z,1.28
2019-01-30T00:28:57.019Z,1.26
2019-01-30T00:30:03.899Z,1.27
2019-01-30T00:31:21.477Z,1.23
2019-01-30T00:32:21.467Z,1.09
2019-01-30T00:33:21.453Z,1.20
2019-01-30T00:34:21.442Z,1.23
2019-01-30T00:35:21.433Z,1.35
2019-01-30T00:36:21.418Z,1.28
2019-01-30T00:37:21.408Z,1.22
2019-01-30T00:38:21.397Z,1.15
2019-01-30T00:39:21.386Z,1.17
2019-01-30T00:40:21.374Z,1.16
2019-01-30T00:41:21.362Z,1.11
2019-01-30T00:42:21.353Z,1.07
2019-01-30T00:43:21.349Z,1.11
2019-01-30T00:44:21.329Z,1.08
2019-01-30T00:45:21.318Z,1.05
2019-01-30T00:46:21.306Z,1.08
2019-01-30T00:47:21.297Z,1.01
2019-01-30T00:48:21.284Z,1.04
2019-01-30T00:49:21.276Z,1.08
2019-01-30T00:50:21.265Z,1.04
2019-01-30T00:51:21.251Z,1.02
2019-01-30T00:52:21.243Z,1.01
2019-01-30T00:53:21.237Z,1.02
2019-01-30T06:41:41.894Z,0.04
2019-01-30T06:42:41.879Z,0.04
2019-01-30T06:43:41.868Z,0.08
2019-01-30T06:44:41.859Z,0.07
2019-01-30T06:45:41.872Z,0.02
2019-01-30T06:46:41.840Z,0.00
2019-01-30T06:47:41.824Z,0.05
2019-01-30T06:48:41.813Z,0.11
2019-01-30T06:49:41.803Z,0.11
2019-01-30T06:50:41.793Z,0.05
2019-01-30T06:51:41.779Z,0.08
2019-01-30T06:52:41.775Z,0.02
2019-01-30T06:53:41.764Z,0.04
2019-01-30T06:56:41.725Z,0.00
2019-01-30T06:57:41.716Z,0.00
2019-01-30T06:58:41.712Z,0.02
2019-01-30T06:59:41.695Z,0.05
2019-01-30T07:00:41.684Z,0.00
2019-01-30T07:01:41.686Z,0.05
2019-01-30T07:02:41.662Z,0.08
2019-01-30T07:03:41.658Z,0.09
2019-01-30T07:04:41.639Z,0.17
2019-01-30T07:05:41.673Z,0.15
2019-01-30T07:06:41.616Z,0.12
2019-01-30T07:07:41.614Z,0.29
2019-01-30T07:08:41.801Z,0.26
2019-01-30T07:09:41.586Z,0.18
2019-01-30T07:10:41.573Z,0.15
2019-01-30T07:11:41.565Z,0.29
2019-01-30T07:12:41.551Z,0.18
2019-01-30T07:13:41.542Z,0.30
2019-01-30T07:14:41.529Z,0.33
2019-01-30T07:15:41.530Z,0.25
2019-01-30T07:16:41.509Z,0.27
2019-01-30T07:17:41.496Z,0.29
2019-01-30T07:18:41.484Z,0.26
2019-01-30T07:19:41.475Z,0.44
2019-01-30T07:20:41.465Z,0.36
2019-01-30T07:21:41.452Z,0.44
2019-01-30T07:22:41.442Z,0.45
2019-01-30T07:23:41.430Z,0.47
2019-01-30T07:24:41.445Z,0.48
2019-01-30T07:25:41.411Z,0.51
2019-01-30T07:26:41.397Z,0.55
2019-01-30T07:27:41.390Z,0.54
2019-01-30T07:28:41.376Z,0.63
2019-01-30T07:29:41.364Z,0.61
2019-01-30T07:30:41.353Z,0.72
2019-01-30T07:31:41.343Z,0.66
2019-01-30T07:32:42.270Z,0.80
2019-01-30T07:33:41.322Z,0.63
2019-01-30T07:34:41.309Z,0.75
2019-01-30T07:35:41.298Z,0.62
2019-01-30T07:36:41.290Z,0.71
2019-01-30T07:37:41.276Z,0.79
2019-01-30T07:38:41.268Z,0.73
2019-01-30T07:39:41.257Z,0.80
2019-01-30T07:40:41.251Z,0.83
2019-01-30T07:41:41.239Z,0.89
2019-01-30T07:42:41.224Z,0.93
2019-01-30T07:43:41.213Z,0.84
2019-01-30T07:44:50.270Z,0.89
2019-01-30T07:46:05.676Z,0.90
2019-01-30T07:47:05.664Z,0.93
2019-01-30T07:48:05.657Z,1.04
2019-01-30T07:49:05.647Z,1.07
2019-01-30T07:50:05.628Z,1.01
2019-01-30T07:51:05.621Z,1.11
2019-01-30T07:52:05.606Z,1.23
2019-01-30T07:53:05.596Z,1.12
2019-01-30T07:54:05.669Z,1.11
2019-01-30T07:55:05.578Z,1.20
2019-01-30T07:56:05.565Z,1.27
2019-01-30T07:57:05.555Z,1.22
2019-01-30T07:58:05.983Z,1.42
2019-01-30T07:59:05.535Z,1.49
2019-01-30T08:00:05.521Z,1.59
2019-01-30T08:01:05.506Z,1.56
2019-01-30T08:02:05.504Z,1.57
2019-01-30T08:03:05.487Z,1.67
2019-01-30T08:04:05.475Z,1.74
2019-01-30T08:05:05.464Z,1.73
2019-01-30T08:06:05.454Z,1.60
2019-01-30T08:07:05.443Z,1.69
2019-01-30T08:08:05.431Z,1.66
2019-01-30T08:09:05.424Z,1.63
2019-01-30T08:10:05.410Z,1.81
2019-01-30T08:11:07.329Z,1.80
2019-01-30T08:12:05.386Z,1.99
2019-01-30T08:13:05.379Z,2.02
2019-01-30T08:14:05.363Z,2.13
2019-01-30T08:15:05.356Z,2.13
2019-01-30T08:16:05.341Z,2.28
2019-01-30T08:17:05.330Z,2.29
2019-01-30T08:18:05.319Z,2.39
2019-01-30T08:19:05.307Z,2.46
2019-01-30T08:20:05.299Z,2.60
2019-01-30T08:21:05.286Z,2.49
2019-01-30T08:22:05.274Z,2.73
2019-01-30T08:23:05.283Z,2.68
2019-01-30T08:24:05.610Z,2.78
2019-01-30T08:25:05.726Z,2.96
2019-01-30T08:26:05.611Z,3.23
2019-01-30T08:27:05.218Z,3.17
2019-01-30T08:28:05.284Z,3.44
2019-01-30T08:29:05.271Z,3.59
2019-01-30T08:30:05.702Z,3.72
2019-01-30T08:31:05.532Z,3.84
2019-01-30T08:32:05.164Z,3.79
2019-01-30T08:33:05.878Z,3.79
2019-01-30T08:34:05.151Z,3.73
2019-01-30T08:35:05.130Z,3.68
2019-01-30T08:36:05.118Z,3.72
2019-01-30T08:37:05.110Z,3.86
2019-01-30T08:38:05.105Z,3.87
2019-01-30T08:39:05.088Z,3.99
2019-01-30T08:40:05.079Z,4.02
2019-01-30T08:41:05.068Z,4.16
2019-01-30T08:42:05.059Z,4.21
2019-01-30T08:43:05.045Z,4.35
2019-01-30T08:44:05.034Z,4.54
2019-01-30T08:45:05.023Z,4.71
2019-01-30T08:46:05.008Z,4.72
2019-01-30T08:47:05.017Z,4.69
2019-01-30T08:48:05.012Z,4.88
2019-01-30T08:49:05.025Z,5.00
2019-01-30T08:50:29.497Z,5.10
2019-01-30T08:51:29.485Z,4.97
2019-01-30T08:52:29.476Z,5.18
2019-01-30T08:53:29.465Z,5.13
2019-01-30T08:54:29.451Z,5.36
2019-01-30T08:55:29.444Z,5.32
2019-01-30T08:56:29.429Z,5.20
2019-01-30T08:57:29.419Z,5.32
2019-01-30T08:58:29.407Z,5.39
2019-01-30T08:59:29.403Z,5.55
2019-01-30T09:00:29.390Z,5.82
2019-01-30T09:01:29.374Z,6.05
2019-01-30T09:02:29.374Z,6.26
2019-01-30T09:03:29.352Z,6.45
2019-01-30T09:04:29.338Z,6.72
2019-01-30T09:05:29.328Z,7.08
2019-01-30T09:06:29.318Z,6.84
2019-01-30T09:07:29.317Z,6.81
2019-01-30T09:08:29.295Z,6.87
2019-01-30T09:09:29.284Z,7.08
2019-01-30T09:10:29.277Z,7.24
2019-01-30T09:11:29.262Z,7.01
2019-01-30T09:12:29.250Z,7.37
2019-01-30T09:13:29.241Z,7.42
2019-01-30T09:14:29.233Z,7.77
2019-01-30T09:15:29.218Z,7.93
2019-01-30T09:16:29.204Z,8.16
2019-01-30T09:17:29.195Z,8.49
2019-01-30T09:18:29.182Z,8.95
2019-01-30T09:19:29.172Z,9.14
2019-01-30T09:20:29.161Z,9.17
2019-01-30T09:21:29.157Z,9.32
2019-01-30T09:22:29.140Z,9.36
2019-01-30T09:23:29.131Z,9.22
2019-01-30T09:24:29.119Z,9.49
2019-01-30T09:25:29.107Z,9.99
2019-01-30T09:26:29.093Z,10.18
2019-01-30T09:27:29.082Z,10.21
2019-01-30T09:28:29.073Z,10.79
2019-01-30T09:29:29.063Z,10.77
2019-01-30T09:30:29.049Z,10.59
2019-01-30T09:31:29.039Z,10.39
2019-01-30T09:32:29.026Z,10.12
2019-01-30T09:33:29.020Z,10.38
2019-01-30T09:34:29.005Z,10.27
2019-01-30T09:35:28.993Z,9.90
2019-01-30T09:36:29.034Z,10.10
2019-01-30T09:37:28.999Z,10.43
2019-01-30T09:38:29.049Z,10.57
2019-01-30T09:39:28.950Z,10.63
2019-01-30T09:40:28.959Z,10.38
2019-01-30T09:41:28.927Z,10.21
2019-01-30T09:42:28.916Z,10.28
2019-01-30T09:43:28.937Z,10.20
2019-01-30T09:44:28.892Z,10.35
2019-01-30T09:45:28.911Z,10.12
2019-01-30T09:46:28.891Z,9.98
2019-01-30T09:47:28.861Z,10.06
2019-01-30T09:48:28.950Z,10.08
2019-01-30T09:49:28.875Z,10.17
2019-01-30T09:50:28.828Z,10.17
2019-01-30T09:51:28.825Z,9.80
2019-01-30T09:52:28.806Z,9.83
2019-01-30T09:53:28.794Z,10.24
2019-01-30T09:54:28.794Z,10.27
2019-01-30T09:55:28.771Z,10.28
2019-01-30T09:56:28.763Z,10.53
2019-01-30T09:57:28.758Z,10.35
2019-01-30T09:58:28.740Z,10.66
2019-01-30T09:59:28.729Z,10.77
2019-01-30T10:00:28.719Z,11.52
2019-01-30T10:01:28.706Z,11.54
2019-01-30T10:02:28.706Z,11.49
2019-01-30T10:03:36.094Z,11.31
2019-01-30T10:04:53.154Z,11.59
2019-01-30T10:05:53.145Z,12.31
2019-01-30T10:06:53.131Z,12.71
2019-01-30T10:07:55.200Z,13.02
2019-01-30T10:08:53.112Z,13.24
2019-01-30T10:09:53.099Z,12.46
2019-01-30T10:10:53.087Z,12.35
2019-01-30T10:11:53.080Z,12.65
2019-01-30T10:12:53.062Z,12.71
2019-01-30T10:13:53.053Z,12.98
2019-01-30T10:14:53.043Z,13.04
2019-01-30T10:15:53.025Z,13.05
2019-01-30T10:16:53.024Z,12.79
2019-01-30T10:17:53.003Z,12.68
2019-01-30T10:18:52.991Z,12.58
2019-01-30T10:19:52.980Z,12.39
2019-01-30T10:20:52.975Z,12.46
2019-01-30T10:21:52.956Z,12.83
2019-01-30T10:22:52.952Z,13.13
2019-01-30T10:23:52.932Z,13.38
2019-01-30T10:24:52.928Z,13.04
2019-01-30T10:25:52.912Z,12.37
2019-01-30T10:26:52.902Z,11.74
2019-01-30T10:27:52.888Z,12.24
2019-01-30T10:28:52.877Z,12.43
2019-01-30T10:29:52.864Z,12.72
2019-01-30T10:30:52.862Z,12.86
2019-01-30T10:31:52.842Z,12.79
2019-01-30T10:32:52.835Z,12.73
2019-01-30T10:33:52.820Z,12.46
2019-01-30T10:34:52.808Z,12.43
2019-01-30T10:35:52.798Z,12.32
2019-01-30T10:36:52.787Z,12.31
2019-01-30T10:37:52.774Z,12.46
2019-01-30T10:38:52.764Z,12.71
2019-01-30T10:39:52.761Z,13.02
2019-01-30T10:40:52.739Z,12.71
2019-01-30T10:41:52.737Z,12.77
2019-01-30T10:42:52.728Z,13.19
2019-01-30T10:43:52.707Z,13.45
2019-01-30T10:44:52.696Z,13.67
2019-01-30T10:45:52.685Z,13.45
2019-01-30T10:46:52.678Z,13.32
2019-01-30T10:47:52.664Z,13.17
2019-01-30T10:48:52.651Z,12.65
2019-01-30T10:49:52.643Z,12.76
2019-01-30T10:50:52.629Z,12.71
2019-01-30T10:51:52.616Z,12.61
2019-01-30T10:52:52.605Z,12.47
2019-01-30T10:53:52.593Z,12.40
2019-01-30T10:54:52.584Z,12.52
2019-01-30T10:55:52.570Z,12.71
2019-01-30T10:56:52.559Z,12.68
2019-01-30T10:57:52.548Z,12.71
2019-01-30T10:58:52.535Z,12.96
2019-01-30T10:59:52.525Z,12.81
2019-01-30T11:00:52.514Z,12.31
2019-01-30T11:01:52.511Z,12.17
2019-01-30T11:02:52.489Z,12.14
2019-01-30T11:03:57.451Z,12.43
2019-01-30T11:04:52.469Z,12.45
2019-01-30T11:05:52.552Z,12.46
2019-01-30T11:06:52.445Z,12.66
2019-01-30T11:07:52.434Z,12.91
2019-01-30T11:08:52.422Z,12.57
2019-01-30T11:09:52.414Z,12.60
2019-01-30T11:10:52.403Z,12.22
2019-01-30T11:11:52.395Z,12.43
2019-01-30T11:12:52.377Z,12.45
2019-01-30T11:13:52.365Z,12.42
2019-01-30T11:14:52.355Z,12.06
2019-01-30T11:15:52.343Z,12.17
2019-01-30T11:16:52.340Z,12.09
2019-01-30T11:17:52.328Z,12.22
2019-01-30T11:18:52.310Z,11.89
2019-01-30T11:19:52.303Z,11.61
2019-01-30T11:20:52.291Z,11.70
2019-01-30T11:21:52.275Z,11.87
2019-01-30T11:22:53.633Z,11.73
2019-01-30T11:23:52.258Z,12.06
2019-01-30T11:24:52.245Z,11.77
2019-01-30T11:25:52.230Z,11.61
2019-01-30T11:26:52.219Z,11.27
2019-01-30T11:27:52.210Z,10.97
2019-01-30T11:28:52.286Z,11.33
2019-01-30T11:29:52.192Z,11.49
2019-01-30T11:30:52.173Z,11.91
2019-01-30T11:31:52.166Z,12.06
2019-01-30T11:32:52.159Z,11.74
2019-01-30T11:33:52.147Z,11.66
2019-01-30T11:34:52.136Z,11.37
2019-01-30T11:35:52.120Z,11.03
2019-01-30T11:36:52.108Z,11.46
2019-01-30T11:37:52.095Z,11.64
2019-01-30T11:38:52.081Z,11.54
2019-01-30T11:39:52.071Z,11.02
2019-01-30T11:40:52.062Z,11.25
2019-01-30T11:41:52.048Z,10.97
2019-01-30T11:42:52.038Z,10.82
2019-01-30T11:43:52.024Z,10.77
2019-01-30T11:44:52.014Z,11.07
2019-01-30T11:45:52.002Z,10.86
2019-01-30T11:46:51.988Z,10.75
2019-01-30T11:47:51.979Z,10.59
2019-01-30T11:48:56.529Z,10.61
2019-01-30T11:49:51.956Z,10.77
2019-01-30T11:50:51.952Z,10.93
2019-01-30T11:51:51.933Z,11.08
2019-01-30T11:52:51.921Z,11.55
2019-01-30T11:53:51.910Z,11.62
2019-01-30T11:54:51.899Z,11.56
2019-01-30T11:55:51.886Z,11.36
2019-01-30T11:56:51.877Z,10.81
2019-01-30T11:57:51.979Z,10.51
2019-01-30T11:58:51.854Z,10.34
2019-01-30T11:59:51.843Z,10.34
2019-01-30T12:00:51.832Z,10.31
2019-01-30T12:01:51.825Z,10.48
2019-01-30T12:02:51.810Z,10.45
2019-01-30T12:03:51.798Z,10.17
2019-01-30T12:04:51.787Z,10.20
2019-01-30T12:05:51.778Z,9.90
2019-01-30T12:06:51.761Z,9.61
2019-01-30T12:07:51.765Z,9.56
2019-01-30T12:08:51.738Z,9.59
2019-01-30T12:09:51.729Z,9.59
2019-01-30T12:10:51.714Z,9.80
2019-01-30T12:11:51.780Z,9.33
2019-01-30T12:12:51.693Z,9.51
2019-01-30T12:13:51.677Z,9.81
2019-01-30T12:14:51.678Z,10.23
2019-01-30T12:15:51.655Z,10.30
2019-01-30T12:16:51.642Z,10.42
2019-01-30T12:17:51.632Z,10.18
2019-01-30T12:18:51.619Z,10.17
2019-01-30T12:19:51.607Z,10.21
2019-01-30T12:20:52.051Z,10.08
2019-01-30T12:21:53.583Z,9.66
2019-01-30T12:22:51.575Z,9.64
2019-01-30T12:23:51.559Z,9.56
2019-01-30T12:24:51.548Z,9.50
2019-01-30T12:25:51.541Z,9.36
2019-01-30T12:26:51.527Z,9.25
2019-01-30T12:27:51.513Z,9.44
2019-01-30T12:28:51.505Z,9.33
2019-01-30T12:29:51.494Z,9.25
2019-01-30T12:30:51.484Z,9.01
2019-01-30T12:31:51.469Z,8.96
2019-01-30T12:32:51.454Z,8.96
2019-01-30T12:33:51.448Z,8.81
2019-01-30T12:34:51.439Z,8.47
2019-01-30T12:35:51.422Z,8.38
2019-01-30T12:36:51.412Z,8.39
2019-01-30T12:37:51.402Z,8.55
2019-01-30T12:38:51.389Z,8.62
2019-01-30T12:39:51.382Z,8.49
2019-01-30T12:40:51.377Z,8.23
2019-01-30T12:41:51.358Z,8.22
2019-01-30T12:42:51.346Z,8.19
2019-01-30T12:43:51.337Z,8.34
2019-01-30T12:44:51.322Z,8.33
2019-01-30T12:45:51.311Z,8.50
2019-01-30T12:46:51.300Z,8.53
2019-01-30T12:47:51.289Z,8.38
2019-01-30T12:48:51.286Z,8.33
2019-01-30T12:49:51.267Z,8.22
2019-01-30T12:50:51.255Z,8.20
2019-01-30T12:51:51.274Z,8.19
2019-01-30T12:52:51.238Z,8.20
2019-01-30T12:53:51.222Z,7.94
2019-01-30T12:54:51.214Z,7.80
2019-01-30T12:55:51.208Z,7.83
2019-01-30T12:56:51.191Z,7.57
2019-01-30T12:57:51.178Z,7.42
2019-01-30T12:58:51.171Z,7.42
2019-01-30T12:59:51.158Z,7.42
2019-01-30T13:00:51.155Z,7.64
2019-01-30T13:01:51.136Z,7.76
2019-01-30T13:02:51.129Z,7.67
2019-01-30T13:03:51.118Z,7.57
2019-01-30T13:04:51.110Z,7.49
2019-01-30T13:05:51.090Z,7.46
2019-01-30T13:06:51.080Z,7.44
2019-01-30T13:07:51.071Z,7.47
2019-01-30T13:08:51.058Z,7.26
2019-01-30T13:09:51.047Z,7.33
2019-01-30T13:10:51.034Z,7.19
2019-01-30T13:11:51.027Z,7.11
2019-01-30T13:12:51.019Z,6.97
2019-01-30T13:13:51.003Z,6.91
2019-01-30T13:14:50.990Z,6.92
2019-01-30T13:15:50.979Z,6.74
2019-01-30T13:16:50.973Z,6.64
2019-01-30T13:17:50.962Z,6.72
2019-01-30T13:18:50.944Z,6.82
2019-01-30T13:19:50.933Z,6.91
2019-01-30T13:20:50.927Z,7.00
2019-01-30T13:21:50.926Z,6.99
2019-01-30T13:22:50.929Z,6.88
2019-01-30T13:23:50.937Z,6.77
2019-01-30T13:24:50.875Z,6.81
2019-01-30T13:25:50.879Z,6.77
2019-01-30T13:26:50.882Z,6.72
2019-01-30T13:27:50.882Z,6.69
2019-01-30T13:28:50.886Z,6.64
2019-01-30T13:29:50.825Z,6.49
2019-01-30T13:30:50.814Z,6.39
2019-01-30T13:31:50.797Z,6.27
2019-01-30T13:32:50.788Z,6.29
2019-01-30T13:33:50.774Z,6.26
2019-01-30T13:34:50.762Z,6.41
2019-01-30T13:35:50.749Z,6.34
2019-01-30T13:36:50.741Z,6.37
2019-01-30T13:37:50.727Z,6.36
2019-01-30T13:38:50.720Z,6.33
2019-01-30T13:39:50.705Z,6.39
2019-01-30T13:40:50.696Z,6.30
2019-01-30T13:41:52.693Z,6.45
2019-01-30T13:42:50.671Z,6.37
2019-01-30T13:43:50.659Z,6.46
2019-01-30T13:44:50.648Z,6.48
2019-01-30T13:45:50.638Z,6.34
2019-01-30T13:46:50.624Z,6.33
2019-01-30T13:47:50.624Z,6.19
2019-01-30T13:48:50.607Z,6.13
2019-01-30T13:49:50.607Z,6.13
2019-01-30T13:50:50.611Z,6.06
2019-01-30T13:51:50.575Z,5.90
2019-01-30T13:52:50.611Z,5.91
2019-01-30T13:53:50.544Z,5.73
2019-01-30T13:54:50.534Z,5.66
2019-01-30T13:55:50.521Z,5.69
2019-01-30T13:56:50.513Z,5.73
2019-01-30T13:57:50.501Z,5.57
2019-01-30T13:58:50.501Z,5.72
2019-01-30T13:59:50.504Z,5.55
2019-01-30T14:00:50.464Z,5.59
2019-01-30T14:01:50.459Z,5.57
2019-01-30T14:02:50.469Z,5.66
2019-01-30T14:03:50.439Z,5.62
2019-01-30T14:04:59.300Z,5.61
2019-01-30T14:06:14.888Z,5.59
2019-01-30T14:07:14.878Z,5.62
2019-01-30T14:08:14.872Z,5.62
2019-01-30T14:09:14.877Z,5.62
2019-01-30T14:10:14.860Z,5.65
2019-01-30T14:11:14.851Z,5.59
2019-01-30T14:12:14.854Z,5.43
2019-01-30T14:13:14.825Z,5.43
2019-01-30T14:14:14.829Z,5.32
2019-01-30T14:15:14.787Z,5.33
2019-01-30T14:16:14.777Z,5.31
2019-01-30T14:17:14.799Z,5.39
2019-01-30T14:18:14.752Z,5.39
2019-01-30T14:19:14.742Z,5.49
2019-01-30T14:20:14.731Z,5.43
2019-01-30T14:21:14.799Z,5.33
2019-01-30T14:22:14.733Z,5.33
2019-01-30T14:23:14.697Z,5.38
2019-01-30T14:24:14.687Z,5.28
2019-01-30T14:25:14.676Z,5.39
2019-01-30T14:26:14.665Z,5.35
2019-01-30T14:27:14.657Z,5.23
2019-01-30T14:28:14.648Z,5.23
2019-01-30T14:29:14.631Z,5.18
2019-01-30T14:30:14.621Z,5.14
2019-01-30T14:31:14.616Z,5.13
2019-01-30T14:32:15.021Z,5.18
2019-01-30T14:33:14.598Z,5.20
2019-01-30T14:34:14.594Z,5.18
2019-01-30T14:35:14.585Z,5.24
2019-01-30T14:36:14.573Z,5.15
2019-01-30T14:37:14.542Z,5.10
2019-01-30T14:38:14.572Z,5.05
2019-01-30T14:39:14.563Z,5.15
2019-01-30T14:40:14.543Z,5.05
2019-01-30T14:41:14.521Z,4.99
2019-01-30T14:42:14.503Z,5.06
2019-01-30T14:43:14.523Z,5.05
2019-01-30T14:44:14.476Z,5.02
2019-01-30T14:45:14.454Z,4.93
2019-01-30T14:46:14.444Z,4.95
2019-01-30T14:47:14.437Z,4.88
2019-01-30T14:48:14.424Z,4.79
2019-01-30T14:49:14.411Z,4.82
2019-01-30T14:50:14.404Z,4.88
2019-01-30T14:51:14.549Z,4.87
2019-01-30T14:52:14.378Z,4.79
2019-01-30T14:53:14.369Z,4.66
2019-01-30T14:54:14.359Z,4.64
2019-01-30T14:55:14.389Z,4.60
2019-01-30T14:56:14.336Z,4.67
2019-01-30T14:57:14.325Z,4.75
2019-01-30T14:58:14.311Z,4.72
2019-01-30T14:59:14.347Z,4.57
2019-01-30T15:00:14.339Z,4.56
2019-01-30T15:01:14.306Z,4.60
2019-01-30T15:02:14.429Z,4.59
2019-01-30T15:03:14.299Z,4.57
2019-01-30T15:04:14.244Z,4.71
2019-01-30T15:05:21.802Z,4.71
2019-01-30T15:06:38.706Z,4.54
2019-01-30T15:07:38.719Z,4.54
2019-01-30T15:08:38.727Z,4.51
2019-01-30T15:09:38.670Z,4.45
2019-01-30T15:10:38.659Z,4.49
2019-01-30T15:11:38.659Z,4.39
2019-01-30T15:12:38.667Z,4.35
2019-01-30T15:13:38.663Z,4.41
2019-01-30T15:14:38.615Z,4.28
2019-01-30T15:15:38.630Z,4.30
2019-01-30T15:16:38.593Z,4.24
2019-01-30T15:17:38.584Z,4.17
2019-01-30T15:18:38.570Z,4.10
2019-01-30T15:19:38.559Z,4.26
2019-01-30T15:20:38.576Z,4.30
2019-01-30T15:21:38.535Z,4.23
2019-01-30T15:22:38.527Z,4.20
2019-01-30T15:23:38.514Z,4.10
2019-01-30T15:24:38.505Z,3.97
2019-01-30T15:25:38.498Z,3.93
2019-01-30T15:26:38.480Z,3.99
2019-01-30T15:27:38.469Z,3.86
2019-01-30T15:28:38.461Z,3.84
2019-01-30T15:29:38.448Z,3.89
2019-01-30T15:30:38.436Z,3.84
2019-01-30T15:31:38.425Z,3.87
2019-01-30T15:32:38.413Z,3.89
2019-01-30T15:33:38.401Z,3.89
2019-01-30T15:34:38.391Z,3.83
2019-01-30T15:35:38.391Z,3.75
2019-01-30T15:36:38.370Z,3.77
2019-01-30T15:37:38.365Z,3.73
2019-01-30T15:38:38.352Z,3.72
2019-01-30T15:39:38.333Z,3.68
2019-01-30T15:40:38.328Z,3.72
2019-01-30T15:41:38.313Z,3.63
2019-01-30T15:42:48.956Z,3.65
2019-01-30T15:44:02.769Z,3.72
2019-01-30T15:45:02.758Z,3.68
2019-01-30T15:46:02.745Z,3.62
2019-01-30T15:47:02.734Z,3.79
2019-01-30T15:48:02.722Z,3.69
2019-01-30T15:49:02.711Z,3.73
2019-01-30T15:50:02.706Z,3.73
2019-01-30T15:51:02.698Z,3.80
2019-01-30T15:52:02.676Z,3.66
2019-01-30T15:53:02.667Z,3.75
2019-01-30T15:54:02.653Z,3.63
2019-01-30T15:55:02.646Z,3.63
2019-01-30T15:56:02.637Z,3.58
2019-01-30T15:57:02.622Z,3.58
2019-01-30T15:58:02.607Z,3.53
2019-01-30T15:59:02.602Z,3.50
2019-01-30T16:00:02.586Z,3.43
2019-01-30T16:01:02.573Z,3.45
2019-01-30T16:02:02.565Z,3.47
2019-01-30T16:03:02.554Z,3.44
2019-01-30T16:04:05.928Z,3.50
2019-01-30T16:05:02.535Z,3.45
2019-01-30T16:06:02.519Z,3.45
2019-01-30T16:07:02.507Z,3.59
2019-01-30T16:08:02.498Z,3.54
2019-01-30T16:09:02.506Z,3.45
2019-01-30T16:10:02.483Z,3.37
2019-01-30T16:11:02.495Z,3.36
2019-01-30T16:12:02.450Z,3.47
2019-01-30T16:13:02.440Z,3.47
2019-01-30T16:14:02.431Z,3.48
2019-01-30T16:15:02.419Z,3.50
2019-01-30T16:16:02.513Z,3.40
2019-01-30T16:17:02.398Z,3.35
2019-01-30T16:18:02.405Z,3.33
2019-01-30T16:20:02.359Z,3.27
2019-01-30T16:21:02.346Z,3.29
2019-01-30T16:22:02.337Z,3.29
2019-01-30T16:23:02.323Z,3.15
2019-01-30T16:24:02.315Z,3.12
2019-01-30T16:25:08.742Z,3.14
2019-01-30T16:26:26.774Z,3.17
2019-01-30T16:27:26.759Z,3.20
2019-01-30T16:28:26.747Z,3.25
2019-01-30T16:29:26.740Z,3.15
2019-01-30T16:30:26.726Z,3.12
2019-01-30T16:31:26.717Z,3.14
2019-01-30T16:32:26.701Z,3.05
2019-01-30T16:33:26.691Z,3.17
2019-01-30T16:34:26.680Z,3.14
2019-01-30T16:35:26.669Z,3.09
2019-01-30T16:36:26.661Z,3.18
2019-01-30T16:37:26.650Z,3.08
2019-01-30T16:38:26.638Z,3.07
2019-01-30T16:39:29.110Z,3.05
2019-01-30T16:40:26.623Z,3.05
2019-01-30T16:41:26.604Z,3.09
2019-01-30T16:42:26.595Z,3.08
2019-01-30T16:43:26.599Z,3.07
2019-01-30T16:44:26.607Z,3.00
2019-01-30T16:45:26.603Z,3.09
2019-01-30T20:31:48.539Z,1.26
2019-01-30T20:33:48.520Z,1.22
2019-01-30T20:36:48.481Z,1.16
2019-01-30T20:39:48.448Z,1.12
2019-01-30T20:40:48.436Z,1.11
2019-01-30T20:41:48.428Z,1.11
2019-01-30T20:42:48.412Z,1.12
2019-01-30T20:43:48.407Z,1.07
2019-01-30T20:44:48.392Z,1.08
2019-01-30T20:48:51.654Z,1.04
2019-01-30T20:51:48.315Z,1.02
2019-01-30T20:53:48.292Z,1.09
2019-01-30T20:54:59.435Z,1.05
2019-01-30T21:00:12.710Z,1.11
2019-01-30T21:01:12.696Z,1.08
2019-01-30T21:02:12.688Z,1.08
2019-01-30T21:05:12.653Z,1.04
2019-01-30T21:06:12.644Z,1.05
2019-01-30T21:07:12.628Z,1.04
2019-01-30T21:08:12.617Z,1.05
2019-01-30T21:09:12.608Z,1.04
2019-01-30T21:10:12.601Z,1.04
2019-01-30T21:11:12.584Z,1.04
2019-01-30T21:12:12.574Z,1.01
2019-01-30T21:19:12.521Z,1.01
2019-01-30T21:24:12.473Z,1.02
